Terminal Aerodrome Forecast
Issued by NWS

Home | Current Version | Previous Version | Text Only | Print | Product List | Glossary On
Versions: 1 2 3 4 5 6 7 8 9 10 11 12 13 14 15 16 17
000
FTUS42 KMHX 300500 RRA
TAFISO
TAF
KISO 300541Z 3006/3106 07003KT P6SM FEW030
     FM300800 00000KT 3SM BR BKN003
     FM301300 13007KT P6SM SCT040
     FM310200 18004KT P6SM SKC
      AMD LTD TO CLD VIS AND WIND=

USA.gov is the U.S. government's official web portal to all federal, state and local government web resources and services.